Time;durP1;ratioP1;P1;durP2;ratioP2;P2;SDS_P1;SDS_P2;PMS_P1;PMS_P2;Temp;Humidity;BMP_temperature;BMP_pressure;BME280_temperature;BME280_humidity;BME280_pressure;Samples;Min_cycle;Max_cycle;Signal;HPM_P1;HPM_P2
2024/03/12 00:01:07;;;;;;;2.53;1.40;;;6.40;99.90;;;;;;4970470;28;20030;-73
2024/03/12 00:03:42;;;;;;;3.60;2.20;;;6.50;99.90;;;;;;4972793;28;20105;-73
2024/03/12 00:06:09;;;;;;;4.57;1.85;;;6.50;99.90;;;;;;4970440;28;20035;-73
2024/03/12 00:08:36;;;;;;;3.22;1.98;;;6.50;99.90;;;;;;4972333;28;20037;-72
2024/03/12 00:11:04;;;;;;;6.50;2.10;;;6.40;99.90;;;;;;4967962;28;20038;-73
2024/03/12 00:13:30;;;;;;;2.92;1.63;;;6.40;99.90;;;;;;4972382;28;20051;-72
2024/03/12 00:15:56;;;;;;;4.63;2.17;;;6.40;99.90;;;;;;4966358;28;20420;-72
2024/03/12 00:18:25;;;;;;;4.13;1.95;;;6.40;99.90;;;;;;4971526;28;20121;-72
2024/03/12 00:20:53;;;;;;;4.43;2.38;;;6.40;99.90;;;;;;4959563;28;20031;-72
2024/03/12 00:23:19;;;;;;;7.38;1.85;;;6.30;99.90;;;;;;4972716;28;20031;-73
2024/03/12 00:25:44;;;;;;;3.75;2.78;;;6.40;99.90;;;;;;4966037;28;20034;-73
2024/03/12 00:28:11;;;;;;;10.50;2.55;;;6.40;99.90;;;;;;4972746;28;20023;-73
2024/03/12 00:30:44;;;;;;;5.45;2.72;;;6.30;99.90;;;;;;4987501;28;20118;-73
2024/03/12 00:33:10;;;;;;;4.85;2.28;;;6.30;99.90;;;;;;4971716;28;20038;-73
2024/03/12 00:35:36;;;;;;;9.43;1.92;;;6.30;99.90;;;;;;4965593;28;20035;-73
2024/03/12 00:38:05;;;;;;;5.85;1.92;;;6.30;99.90;;;;;;4971378;28;20596;-73
2024/03/12 00:40:33;;;;;;;3.72;1.83;;;6.20;99.90;;;;;;4969993;28;20539;-73
2024/03/12 00:43:00;;;;;;;5.53;2.25;;;6.30;99.90;;;;;;4976835;28;20025;-73
2024/03/12 00:45:29;;;;;;;4.00;1.65;;;6.30;99.90;;;;;;4970902;28;20035;-73
2024/03/12 00:47:56;;;;;;;6.82;2.60;;;6.30;99.90;;;;;;4967169;28;20495;-73
2024/03/12 00:50:23;;;;;;;2.42;1.75;;;6.50;99.90;;;;;;4976605;28;20035;-73
2024/03/12 00:52:53;;;;;;;7.22;2.17;;;6.50;99.90;;;;;;4961712;28;20497;-74
2024/03/12 00:55:20;;;;;;;2.95;1.95;;;6.60;99.90;;;;;;4977046;28;20042;-74
2024/03/12 00:57:50;;;;;;;4.28;1.98;;;6.60;99.90;;;;;;4993985;28;20165;-74
2024/03/12 01:00:17;;;;;;;2.70;1.42;;;6.70;99.90;;;;;;4976453;28;20058;-74
2024/03/12 01:02:49;;;;;;;3.80;1.77;;;6.70;99.90;;;;;;4977699;28;20031;-75
2024/03/12 01:05:25;;;;;;;3.38;1.90;;;6.70;99.90;;;;;;4976133;28;20039;-73
2024/03/12 01:07:53;;;;;;;2.28;1.77;;;6.80;99.90;;;;;;4976373;28;20118;-74
2024/03/12 01:10:20;;;;;;;4.22;1.23;;;6.80;99.90;;;;;;4968128;28;20045;-73
2024/03/12 01:12:51;;;;;;;3.30;1.73;;;6.80;99.90;;;;;;4976403;28;20570;-74
2024/03/12 01:15:18;;;;;;;4.10;1.30;;;6.80;99.90;;;;;;4977909;28;20042;-74
2024/03/12 01:17:45;;;;;;;1.50;0.82;;;6.80;99.90;;;;;;4976945;28;21030;-74
2024/03/12 01:20:11;;;;;;;2.88;1.65;;;6.80;99.90;;;;;;4977212;28;20069;-74
2024/03/12 01:22:37;;;;;;;1.40;1.08;;;6.80;99.90;;;;;;4963548;28;20570;-73
2024/03/12 01:25:07;;;;;;;1.85;1.50;;;6.80;99.90;;;;;;4973046;28;20468;-74
2024/03/12 01:27:38;;;;;;;2.95;1.45;;;6.80;99.90;;;;;;4976232;28;20483;-73
2024/03/12 01:30:14;;;;;;;4.63;1.87;;;6.80;99.90;;;;;;4972867;28;20026;-73
2024/03/12 01:32:40;;;;;;;2.35;1.23;;;6.90;99.90;;;;;;4967825;28;20113;-72
2024/03/12 01:35:08;;;;;;;2.03;1.20;;;6.90;99.90;;;;;;4973142;28;20038;-74
2024/03/12 01:37:41;;;;;;;1.73;1.08;;;6.90;99.90;;;;;;4974892;28;20428;-74
2024/03/12 01:40:21;;;;;;;2.30;1.13;;;6.90;99.90;;;;;;4974695;28;20031;-72
2024/03/12 01:42:51;;;;;;;2.55;1.48;;;6.80;99.90;;;;;;4967775;28;20395;-72
2024/03/12 01:45:24;;;;;;;3.85;1.85;;;6.80;99.90;;;;;;4975661;28;20102;-72
2024/03/12 01:47:55;;;;;;;3.08;1.23;;;6.80;99.90;;;;;;4973942;28;20057;-72
2024/03/12 01:50:24;;;;;;;2.80;1.13;;;6.70;99.90;;;;;;4991309;28;20456;-72
2024/03/12 01:52:58;;;;;;;2.85;1.67;;;6.70;99.90;;;;;;4988619;28;20392;-74
2024/03/12 01:55:23;;;;;;;2.03;1.35;;;6.60;99.90;;;;;;4975504;28;20150;-74
2024/03/12 01:57:52;;;;;;;3.15;1.55;;;6.60;99.90;;;;;;4958504;28;20043;-75
2024/03/12 02:00:19;;;;;;;4.28;1.60;;;6.60;99.90;;;;;;4974387;28;20579;-74
2024/03/12 02:02:47;;;;;;;2.17;1.17;;;6.60;99.90;;;;;;4977217;28;20113;-74
2024/03/12 02:05:13;;;;;;;2.38;1.35;;;6.60;99.90;;;;;;4972080;28;20030;-74
2024/03/12 02:07:45;;;;;;;4.03;1.98;;;6.50;99.90;;;;;;4970490;28;20414;-73
2024/03/12 02:10:15;;;;;;;3.10;1.90;;;6.50;99.90;;;;;;4973810;28;20031;-74
2024/03/12 02:12:43;;;;;;;4.22;1.20;;;6.40;99.90;;;;;;4966921;28;20031;-73
2024/03/12 02:15:10;;;;;;;3.60;1.30;;;6.40;99.90;;;;;;4973901;28;20030;-74
2024/03/12 02:17:36;;;;;;;4.60;1.33;;;6.30;99.90;;;;;;4959556;28;20047;-74
2024/03/12 02:20:03;;;;;;;3.75;1.50;;;6.30;99.90;;;;;;4975047;28;20070;-73
2024/03/12 02:22:31;;;;;;;1.13;0.75;;;6.30;99.90;;;;;;4966429;28;20027;-73
2024/03/12 02:24:58;;;;;;;3.30;1.45;;;6.30;99.90;;;;;;4973319;28;20128;-73
2024/03/12 02:27:25;;;;;;;3.53;1.75;;;6.40;99.90;;;;;;4975664;28;20039;-73
2024/03/12 02:29:51;;;;;;;2.85;1.10;;;6.40;99.90;;;;;;4957870;28;20133;-73
2024/03/12 02:32:17;;;;;;;3.10;1.35;;;6.30;99.90;;;;;;4966236;28;20558;-73
2024/03/12 02:34:44;;;;;;;3.65;1.02;;;6.30;99.90;;;;;;4974259;28;20065;-73
2024/03/12 02:37:09;;;;;;;3.38;1.67;;;6.30;99.90;;;;;;4966598;28;20130;-72
2024/03/12 02:39:35;;;;;;;5.38;1.73;;;6.30;99.90;;;;;;4949587;28;20106;-72
2024/03/12 02:42:01;;;;;;;3.75;1.17;;;6.30;99.90;;;;;;4970788;28;20081;-73
2024/03/12 02:44:27;;;;;;;2.92;1.42;;;6.30;99.90;;;;;;4968754;28;20709;-73
2024/03/12 02:46:54;;;;;;;2.92;1.30;;;6.30;99.90;;;;;;4972615;28;20038;-73
2024/03/12 02:49:20;;;;;;;5.43;1.80;;;6.30;99.90;;;;;;4965737;28;20090;-73
2024/03/12 02:51:46;;;;;;;6.32;2.03;;;6.20;99.90;;;;;;4982571;28;20038;-73
2024/03/12 02:54:13;;;;;;;2.45;1.50;;;6.20;99.90;;;;;;4989234;28;20031;-73
2024/03/12 02:56:39;;;;;;;2.70;1.50;;;6.30;99.90;;;;;;4972622;28;20062;-73
2024/03/12 02:59:05;;;;;;;2.75;1.30;;;6.20;99.90;;;;;;4971447;28;20077;-73
2024/03/12 03:01:30;;;;;;;5.07;2.08;;;6.30;99.90;;;;;;4973383;28;20034;-73
2024/03/12 03:03:57;;;;;;;4.95;2.30;;;6.30;99.90;;;;;;4971677;28;20033;-73
2024/03/12 03:06:26;;;;;;;6.65;2.90;;;6.30;99.90;;;;;;4972608;28;20449;-74
2024/03/12 03:08:52;;;;;;;2.42;1.83;;;6.30;99.90;;;;;;4973106;28;20042;-73
2024/03/12 03:11:17;;;;;;;2.42;1.60;;;6.30;99.90;;;;;;4968872;28;20039;-73
2024/03/12 03:13:43;;;;;;;3.28;1.60;;;6.30;99.90;;;;;;4973613;28;20037;-73
2024/03/12 03:16:09;;;;;;;5.88;2.40;;;6.30;99.90;;;;;;4966981;28;20408;-73
2024/03/12 03:18:35;;;;;;;2.28;1.25;;;6.40;99.90;;;;;;4971288;28;20063;-73
2024/03/12 03:21:01;;;;;;;5.15;1.92;;;6.30;99.90;;;;;;4966553;28;20065;-73
2024/03/12 03:23:27;;;;;;;4.45;2.40;;;6.30;99.90;;;;;;4958993;28;20031;-73
2024/03/12 03:25:52;;;;;;;3.10;1.85;;;6.30;99.90;;;;;;4961787;28;20034;-73
2024/03/12 03:28:18;;;;;;;6.50;2.72;;;6.20;99.90;;;;;;4987669;28;20046;-73
2024/03/12 03:30:44;;;;;;;3.40;1.63;;;6.20;99.90;;;;;;4972305;28;20495;-73
2024/03/12 03:33:11;;;;;;;3.38;1.73;;;6.20;99.90;;;;;;4973052;28;20031;-73
2024/03/12 03:35:37;;;;;;;3.30;1.73;;;6.10;99.90;;;;;;4964844;28;20033;-73
2024/03/12 03:38:05;;;;;;;4.35;2.00;;;6.20;99.90;;;;;;4987841;28;20045;-73
2024/03/12 03:40:33;;;;;;;3.53;1.20;;;6.20;99.90;;;;;;4953164;28;20060;-73
2024/03/12 03:42:59;;;;;;;2.85;1.65;;;6.10;99.90;;;;;;4970303;28;20023;-73
2024/03/12 03:45:25;;;;;;;1.80;1.23;;;6.20;99.90;;;;;;4965774;28;20105;-73
2024/03/12 03:47:51;;;;;;;4.18;1.67;;;6.20;99.90;;;;;;4987808;28;20087;-73
2024/03/12 03:50:17;;;;;;;2.50;1.55;;;6.30;99.90;;;;;;4966706;28;20480;-73
2024/03/12 03:52:43;;;;;;;5.60;1.77;;;6.30;99.90;;;;;;4972980;28;20127;-73
2024/03/12 03:55:10;;;;;;;4.18;2.25;;;6.20;99.90;;;;;;4965523;28;20035;-73
2024/03/12 03:57:36;;;;;;;2.05;1.13;;;6.30;99.90;;;;;;4984277;28;20039;-73
2024/03/12 04:00:14;;;;;;;2.95;1.30;;;6.30;99.90;;;;;;4967631;28;20041;-73
2024/03/12 04:02:43;;;;;;;3.17;1.75;;;6.30;99.90;;;;;;4966148;28;20031;-73
2024/03/12 04:05:11;;;;;;;5.13;1.77;;;6.30;99.90;;;;;;4973232;28;20498;-73
2024/03/12 04:07:36;;;;;;;4.03;2.28;;;6.30;99.90;;;;;;4973842;28;20045;-73
2024/03/12 04:10:03;;;;;;;1.88;1.48;;;6.30;99.90;;;;;;4969462;28;20392;-73
2024/03/12 04:12:29;;;;;;;4.32;1.65;;;6.30;99.90;;;;;;4973490;28;20089;-73
2024/03/12 04:14:58;;;;;;;5.13;2.05;;;6.40;99.90;;;;;;4982563;28;20031;-73
2024/03/12 04:17:23;;;;;;;4.07;2.33;;;6.40;99.90;;;;;;4980385;28;20035;-73
2024/03/12 04:19:49;;;;;;;2.85;1.50;;;6.50;99.90;;;;;;4973311;28;20105;-73
2024/03/12 04:22:19;;;;;;;2.80;1.55;;;6.50;99.90;;;;;;4966495;28;20126;-73
2024/03/12 04:24:45;;;;;;;2.50;1.35;;;6.50;99.90;;;;;;4964694;28;20031;-73
2024/03/12 04:27:14;;;;;;;4.22;2.10;;;6.50;99.90;;;;;;4958865;28;20049;-73
2024/03/12 04:29:41;;;;;;;4.88;1.55;;;6.60;99.90;;;;;;4955905;28;20030;-73
2024/03/12 04:32:07;;;;;;;8.13;1.80;;;6.60;99.90;;;;;;4961441;28;20046;-74
2024/03/12 04:34:33;;;;;;;7.32;1.63;;;6.70;99.90;;;;;;4971647;28;20029;-73
2024/03/12 04:37:00;;;;;;;3.72;1.45;;;6.70;99.90;;;;;;4967979;28;20126;-73
2024/03/12 04:39:32;;;;;;;4.53;2.03;;;6.70;99.90;;;;;;4955468;28;20460;-73
2024/03/12 04:42:05;;;;;;;4.13;2.35;;;6.80;99.90;;;;;;4966409;28;20035;-73
2024/03/12 04:44:31;;;;;;;6.30;2.30;;;6.90;99.90;;;;;;4972336;28;20038;-73
2024/03/12 04:46:58;;;;;;;4.43;1.55;;;6.90;99.90;;;;;;4967773;28;20478;-73
2024/03/12 04:49:25;;;;;;;5.60;2.08;;;6.80;99.90;;;;;;4971193;28;20104;-73
2024/03/12 04:51:51;;;;;;;3.42;1.85;;;7.00;99.90;;;;;;4967206;28;20023;-73
2024/03/12 04:54:18;;;;;;;4.43;2.50;;;7.00;99.90;;;;;;4971019;28;20388;-73
2024/03/12 04:56:46;;;;;;;5.90;2.65;;;7.00;99.90;;;;;;4965666;28;20027;-73
2024/03/12 04:59:15;;;;;;;5.50;2.30;;;7.10;99.90;;;;;;4972071;28;20061;-73
2024/03/12 05:01:45;;;;;;;6.03;2.70;;;7.10;99.90;;;;;;4967356;28;20413;-73
2024/03/12 05:04:12;;;;;;;4.53;2.17;;;7.10;99.90;;;;;;4972665;28;20348;-74
2024/03/12 05:06:39;;;;;;;7.28;3.80;;;7.20;99.90;;;;;;4965604;28;20026;-74
2024/03/12 05:09:06;;;;;;;10.50;2.22;;;7.20;99.90;;;;;;4971498;28;20030;-74
2024/03/12 05:11:38;;;;;;;6.28;2.78;;;7.20;99.90;;;;;;4972089;28;20034;-74
2024/03/12 05:14:04;;;;;;;7.57;2.67;;;7.30;99.90;;;;;;4972473;28;20062;-75
2024/03/12 05:16:31;;;;;;;7.18;2.40;;;7.30;99.90;;;;;;4970360;28;20247;-74
2024/03/12 05:18:57;;;;;;;7.40;2.58;;;7.40;99.90;;;;;;4971228;28;20022;-74
2024/03/12 05:21:24;;;;;;;4.35;1.85;;;7.40;99.90;;;;;;4970424;28;20026;-73
2024/03/12 05:23:49;;;;;;;5.75;3.03;;;7.40;99.90;;;;;;4972226;28;20023;-74
2024/03/12 05:26:19;;;;;;;8.20;2.88;;;7.40;99.90;;;;;;4969821;28;20049;-74
2024/03/12 05:28:46;;;;;;;3.22;1.75;;;7.50;99.90;;;;;;4973695;28;20069;-73
2024/03/12 05:31:29;;;;;;;7.10;3.72;;;7.50;99.90;;;;;;4988024;28;20121;-74
2024/03/12 05:34:01;;;;;;;4.93;1.85;;;7.50;99.90;;;;;;4981702;28;20049;-73
2024/03/12 05:36:40;;;;;;;2.50;1.55;;;7.60;99.90;;;;;;4981070;28;20093;-73
2024/03/12 05:39:18;;;;;;;4.93;2.63;;;7.60;99.90;;;;;;4980842;28;20324;-72
2024/03/12 05:49:58;;;;;;;4.43;1.92;;;7.70;99.90;;;;;;4970665;28;20035;-75
2024/03/12 05:52:24;;;;;;;6.10;2.08;;;7.70;99.90;;;;;;4968172;28;20033;-74
2024/03/12 05:54:51;;;;;;;2.50;1.85;;;7.70;99.90;;;;;;4994353;28;20056;-76
2024/03/12 05:57:18;;;;;;;3.58;1.85;;;7.70;99.90;;;;;;4982238;28;20030;-75
2024/03/12 05:59:44;;;;;;;3.67;2.10;;;7.70;99.90;;;;;;4984516;28;20026;-74
2024/03/12 06:02:09;;;;;;;6.28;2.70;;;7.70;99.90;;;;;;4995637;28;20034;-74
2024/03/12 06:04:35;;;;;;;6.70;2.72;;;7.70;99.90;;;;;;4969467;28;20027;-75
2024/03/12 06:07:01;;;;;;;6.90;2.08;;;7.80;99.90;;;;;;4969324;28;20082;-75
2024/03/12 06:09:28;;;;;;;4.20;1.75;;;7.80;99.90;;;;;;4969326;28;20027;-74
2024/03/12 06:11:54;;;;;;;5.78;2.10;;;7.90;99.90;;;;;;4984376;28;20039;-75
2024/03/12 06:14:25;;;;;;;4.53;2.53;;;7.90;99.90;;;;;;4985247;28;20066;-74
2024/03/12 06:16:51;;;;;;;5.40;2.40;;;7.90;99.90;;;;;;4978272;28;20026;-73
2024/03/12 06:19:19;;;;;;;4.13;1.50;;;7.90;99.90;;;;;;4983215;28;20034;-75
2024/03/12 06:21:45;;;;;;;4.95;2.50;;;8.00;99.90;;;;;;4981076;28;20031;-73
2024/03/12 06:24:10;;;;;;;2.60;1.33;;;8.00;99.90;;;;;;4972162;28;20033;-76
2024/03/12 06:26:36;;;;;;;3.28;1.35;;;8.10;99.90;;;;;;4974573;28;20023;-74
2024/03/12 06:29:02;;;;;;;3.78;1.48;;;8.00;99.90;;;;;;4972342;28;20443;-73
2024/03/12 06:31:30;;;;;;;3.25;1.75;;;8.00;99.90;;;;;;4988117;28;20031;-72
2024/03/12 06:33:56;;;;;;;4.40;1.38;;;8.00;99.90;;;;;;4970995;28;20125;-73
2024/03/12 06:36:22;;;;;;;2.60;1.25;;;8.10;99.90;;;;;;4977776;28;20120;-73
2024/03/12 06:38:50;;;;;;;5.38;2.10;;;8.10;99.90;;;;;;4986569;28;20034;-73
2024/03/12 06:41:15;;;;;;;4.40;1.70;;;8.20;99.90;;;;;;4983794;28;20027;-73
2024/03/12 06:43:41;;;;;;;5.32;1.50;;;8.10;99.90;;;;;;4982680;28;20033;-73
2024/03/12 06:46:09;;;;;;;4.05;2.05;;;8.10;99.90;;;;;;4988676;28;20023;-73
2024/03/12 06:48:38;;;;;;;5.03;1.63;;;8.20;99.90;;;;;;4983947;28;20388;-75
2024/03/12 06:51:06;;;;;;;6.00;1.70;;;8.20;99.90;;;;;;4982144;28;20046;-74
2024/03/12 06:53:35;;;;;;;4.78;2.35;;;8.20;99.90;;;;;;4971480;28;20031;-73
2024/03/12 06:56:05;;;;;;;5.60;1.92;;;8.20;99.90;;;;;;4974351;28;20505;-74
2024/03/12 06:58:31;;;;;;;3.97;2.13;;;8.20;99.90;;;;;;4967733;28;20042;-73
2024/03/12 07:00:57;;;;;;;5.63;3.22;;;8.20;99.90;;;;;;4981786;28;20019;-74
2024/03/12 07:03:24;;;;;;;5.13;2.15;;;8.20;99.90;;;;;;4981973;28;20050;-74
2024/03/12 07:05:52;;;;;;;4.45;2.58;;;8.10;99.90;;;;;;4981785;28;20026;-74
2024/03/12 07:08:21;;;;;;;3.65;1.27;;;8.10;99.90;;;;;;4982624;28;20026;-74
2024/03/12 07:10:50;;;;;;;2.88;1.55;;;8.10;99.90;;;;;;4978089;28;20130;-74
2024/03/12 07:13:17;;;;;;;3.35;1.73;;;8.00;99.90;;;;;;4975386;28;20030;-74
2024/03/12 07:15:44;;;;;;;5.00;2.53;;;8.00;99.90;;;;;;4983524;28;20084;-74
2024/03/12 07:18:11;;;;;;;6.63;2.00;;;8.10;99.90;;;;;;4979129;28;20041;-61
2024/03/12 07:20:37;;;;;;;7.30;1.85;;;8.10;99.90;;;;;;4979891;28;20112;-61
2024/03/12 07:23:05;;;;;;;5.13;2.40;;;8.10;99.90;;;;;;4979910;28;20074;-62
2024/03/12 07:25:31;;;;;;;4.40;2.53;;;8.10;99.90;;;;;;4978637;28;20030;-62
2024/03/12 07:28:05;;;;;;;4.18;2.25;;;8.20;99.90;;;;;;4980966;28;20415;-62
2024/03/12 07:30:32;;;;;;;4.40;2.08;;;8.20;99.90;;;;;;4980441;28;20027;-72
2024/03/12 07:32:58;;;;;;;4.88;2.10;;;8.20;99.90;;;;;;4999956;23;20042;-67
2024/03/12 07:35:24;;;;;;;3.15;1.75;;;8.20;99.90;;;;;;5005061;28;20046;-67
2024/03/12 07:37:49;;;;;;;10.27;2.60;;;8.30;99.90;;;;;;4996222;28;20035;-67
2024/03/12 07:40:15;;;;;;;4.65;2.45;;;8.40;99.90;;;;;;4992764;28;20065;-67
2024/03/12 07:42:42;;;;;;;4.18;2.30;;;8.50;99.90;;;;;;4997784;28;20085;-66
2024/03/12 07:45:14;;;;;;;4.88;2.78;;;8.50;99.90;;;;;;4992266;28;20030;-66
2024/03/12 07:47:40;;;;;;;4.18;1.95;;;8.60;99.90;;;;;;4983929;28;20088;-67
2024/03/12 07:50:13;;;;;;;3.60;2.72;;;8.60;99.90;;;;;;4992949;28;20034;-67
2024/03/12 07:52:39;;;;;;;6.53;2.60;;;8.60;99.90;;;;;;4987167;28;20108;-67
2024/03/12 07:55:06;;;;;;;5.10;2.08;;;8.60;99.90;;;;;;4991908;28;20038;-66
2024/03/12 07:57:32;;;;;;;13.13;2.78;;;8.50;99.90;;;;;;5004436;28;20037;-68
2024/03/12 08:00:05;;;;;;;4.80;2.38;;;8.50;99.90;;;;;;4993087;28;20092;-67
2024/03/12 08:02:31;;;;;;;3.67;2.10;;;8.70;99.90;;;;;;4991153;28;20463;-67
2024/03/12 08:04:58;;;;;;;7.97;2.85;;;8.70;99.90;;;;;;4992472;28;20033;-67
2024/03/12 08:07:23;;;;;;;5.70;2.53;;;8.70;99.90;;;;;;4991473;28;20066;-67
2024/03/12 08:09:49;;;;;;;6.70;2.47;;;8.70;99.90;;;;;;4997773;28;20084;-67
2024/03/12 08:12:17;;;;;;;7.75;2.53;;;8.80;99.90;;;;;;4990539;28;20559;-67
2024/03/12 08:14:44;;;;;;;7.75;2.88;;;8.80;99.90;;;;;;4990745;28;20081;-67
2024/03/12 08:17:13;;;;;;;10.25;2.60;;;8.90;99.90;;;;;;5006032;28;20041;-67
2024/03/12 08:19:39;;;;;;;4.40;2.85;;;8.80;99.90;;;;;;4983004;28;20423;-67
2024/03/12 08:22:05;;;;;;;6.13;2.88;;;8.90;99.90;;;;;;5006076;28;20034;-67
2024/03/12 08:24:32;;;;;;;4.47;2.50;;;8.80;99.90;;;;;;4991980;28;20038;-67
2024/03/12 08:26:58;;;;;;;5.25;3.03;;;8.90;99.90;;;;;;4990808;28;20030;-67
2024/03/12 08:29:24;;;;;;;6.35;3.20;;;9.00;99.90;;;;;;4992589;28;20084;-67
2024/03/12 08:31:50;;;;;;;7.43;2.53;;;9.00;99.90;;;;;;4989766;28;20026;-67
2024/03/12 08:34:15;;;;;;;6.40;2.95;;;8.90;99.90;;;;;;4992061;28;20034;-67
2024/03/12 08:36:48;;;;;;;6.60;2.83;;;8.80;99.90;;;;;;4990665;28;20509;-67
2024/03/12 08:39:15;;;;;;;5.43;3.42;;;8.90;99.90;;;;;;4992440;28;20037;-67
2024/03/12 08:41:41;;;;;;;5.60;2.55;;;9.00;99.90;;;;;;5002067;28;20023;-67
2024/03/12 08:44:09;;;;;;;4.90;2.85;;;9.00;99.90;;;;;;4981089;28;20404;-67
2024/03/12 08:46:35;;;;;;;5.05;2.60;;;8.90;99.90;;;;;;4990816;28;20487;-68
2024/03/12 08:49:01;;;;;;;6.28;2.92;;;8.80;99.90;;;;;;4984259;28;20033;-67
2024/03/12 08:51:33;;;;;;;10.52;2.55;;;9.00;99.90;;;;;;4991998;28;20041;-67
2024/03/12 08:54:01;;;;;;;5.35;2.35;;;9.10;99.90;;;;;;4986841;28;20446;-67
2024/03/12 08:56:29;;;;;;;5.43;2.53;;;9.10;99.90;;;;;;4992193;28;20037;-67
2024/03/12 08:58:57;;;;;;;6.68;3.00;;;8.90;99.90;;;;;;4984546;28;20691;-67
2024/03/12 09:01:24;;;;;;;8.15;3.08;;;9.00;99.90;;;;;;4991956;28;20046;-67
2024/03/12 09:03:50;;;;;;;7.75;2.60;;;9.10;99.90;;;;;;4986433;28;20578;-67
2024/03/12 09:06:16;;;;;;;7.28;3.53;;;9.20;99.90;;;;;;5001106;28;20116;-67
2024/03/12 09:08:43;;;;;;;7.55;2.92;;;9.00;99.90;;;;;;4986766;28;20109;-67
2024/03/12 09:11:09;;;;;;;8.50;3.00;;;9.00;99.90;;;;;;4995841;28;20026;-67
2024/03/12 09:13:35;;;;;;;5.75;2.63;;;9.00;99.90;;;;;;4987720;28;20117;-67
2024/03/12 09:16:01;;;;;;;8.65;3.45;;;9.00;99.90;;;;;;5010682;28;20056;-67
2024/03/12 09:18:28;;;;;;;6.22;3.63;;;8.90;99.90;;;;;;4987659;28;20031;-67
2024/03/12 09:20:55;;;;;;;7.60;2.65;;;8.80;99.90;;;;;;4995707;28;20536;-67
2024/03/12 09:23:22;;;;;;;8.30;3.40;;;8.80;99.90;;;;;;4987832;28;20039;-67
2024/03/12 09:25:48;;;;;;;4.65;2.53;;;8.80;99.90;;;;;;4995341;28;20378;-67
2024/03/12 09:28:16;;;;;;;6.85;2.75;;;8.80;99.90;;;;;;4990037;28;20047;-67
2024/03/12 09:30:43;;;;;;;4.75;2.60;;;8.80;99.90;;;;;;4986156;28;20106;-67
2024/03/12 09:33:10;;;;;;;10.20;4.38;;;8.90;99.90;;;;;;4987755;28;20037;-67
2024/03/12 09:35:37;;;;;;;10.45;2.90;;;8.80;99.90;;;;;;4993090;28;20085;-67
2024/03/12 09:38:04;;;;;;;7.95;3.80;;;8.90;99.90;;;;;;4988474;28;20031;-67
2024/03/12 09:40:30;;;;;;;5.60;2.80;;;8.90;99.90;;;;;;4994042;28;20050;-67
2024/03/12 09:42:59;;;;;;;6.45;3.05;;;8.90;99.90;;;;;;4989147;28;20034;-68
2024/03/12 09:45:25;;;;;;;8.50;3.65;;;8.90;99.90;;;;;;4994042;28;20403;-68
2024/03/12 09:47:52;;;;;;;6.38;2.92;;;8.90;99.90;;;;;;4989542;28;20038;-68
2024/03/12 09:50:19;;;;;;;7.20;3.55;;;8.90;99.90;;;;;;4994058;28;20034;-67
2024/03/12 09:52:47;;;;;;;7.53;3.47;;;8.90;99.90;;;;;;4993462;28;20038;-68
2024/03/12 09:55:16;;;;;;;6.97;3.60;;;9.00;99.90;;;;;;5009964;28;20069;-67
2024/03/12 09:57:44;;;;;;;13.40;3.63;;;9.00;99.90;;;;;;4982348;28;20161;-67
2024/03/12 10:00:27;;;;;;;8.35;3.55;;;9.00;99.90;;;;;;4990797;28;20037;-67
2024/03/12 10:02:55;;;;;;;7.90;2.72;;;9.00;99.90;;;;;;4983735;28;20034;-67
2024/03/12 10:05:22;;;;;;;8.23;3.65;;;9.10;99.90;;;;;;5007084;28;20049;-67
2024/03/12 10:08:14;;;;;;;6.07;3.22;;;9.20;99.90;;;;;;4990351;28;20061;-67
2024/03/12 10:10:47;;;;;;;9.02;3.17;;;9.10;99.90;;;;;;4986536;28;20515;-67
2024/03/12 10:13:15;;;;;;;9.65;3.40;;;9.20;99.90;;;;;;4986599;28;20479;-67
2024/03/12 10:15:56;;;;;;;10.40;4.57;;;9.30;99.90;;;;;;4992017;28;20572;-67
2024/03/12 10:18:29;;;;;;;7.78;3.53;;;9.40;99.90;;;;;;4986560;28;20129;-67
2024/03/12 10:21:01;;;;;;;10.68;5.10;;;9.30;99.90;;;;;;4994483;28;20022;-67
2024/03/12 10:23:36;;;;;;;9.27;3.63;;;9.20;99.90;;;;;;4984959;28;20112;-67
2024/03/12 10:26:10;;;;;;;7.85;3.75;;;9.30;99.90;;;;;;4994292;28;20022;-67
2024/03/12 10:28:37;;;;;;;8.95;3.28;;;9.30;99.90;;;;;;4994004;28;20112;-67
2024/03/12 10:31:11;;;;;;;8.13;3.20;;;9.40;99.90;;;;;;4993883;28;20058;-67
2024/03/12 10:33:44;;;;;;;5.93;2.85;;;9.40;99.90;;;;;;4985927;28;20034;-70
2024/03/12 10:36:10;;;;;;;9.85;3.78;;;9.50;99.90;;;;;;4993964;28;20037;-67
2024/03/12 10:38:39;;;;;;;10.23;3.85;;;9.40;99.90;;;;;;4985259;28;20053;-67
2024/03/12 10:41:16;;;;;;;6.07;3.08;;;9.50;99.90;;;;;;4992585;28;20462;-67
2024/03/12 10:43:45;;;;;;;8.98;3.78;;;9.60;99.90;;;;;;4978724;28;20557;-67
2024/03/12 10:46:19;;;;;;;8.30;4.22;;;9.60;99.90;;;;;;5008437;28;20030;-67
2024/03/12 10:48:46;;;;;;;7.05;3.38;;;9.60;99.90;;;;;;4977582;28;20430;-67
2024/03/12 10:51:15;;;;;;;9.13;3.97;;;9.80;99.90;;;;;;4996925;28;20109;-67
2024/03/12 10:53:42;;;;;;;8.52;3.20;;;9.90;99.90;;;;;;4985637;28;20034;-67
2024/03/12 10:56:09;;;;;;;8.70;3.97;;;10.00;99.90;;;;;;4995996;28;20031;-67
2024/03/12 10:58:37;;;;;;;9.85;4.28;;;10.00;99.90;;;;;;4985447;28;20105;-67
2024/03/12 11:01:05;;;;;;;8.52;3.90;;;10.10;99.90;;;;;;4993331;28;20026;-67
2024/03/12 11:03:34;;;;;;;8.35;4.13;;;10.10;99.90;;;;;;4985182;28;20487;-67
2024/03/12 11:06:02;;;;;;;9.80;4.18;;;10.10;99.90;;;;;;4993267;28;20546;-67
2024/03/12 11:08:28;;;;;;;9.18;4.60;;;10.00;99.90;;;;;;4985509;28;20065;-67
2024/03/12 11:10:56;;;;;;;12.18;3.70;;;10.10;99.90;;;;;;4993561;28;20045;-67
2024/03/12 11:13:23;;;;;;;12.73;4.82;;;10.10;99.90;;;;;;4992664;28;20045;-67
2024/03/12 11:15:49;;;;;;;11.18;4.50;;;10.20;99.90;;;;;;4991586;28;20050;-67
2024/03/12 11:18:36;;;;;;;10.23;4.72;;;10.10;99.90;;;;;;4984914;28;20078;-67
2024/03/12 11:21:05;;;;;;;11.68;5.05;;;10.20;99.90;;;;;;4983483;28;20133;-66
2024/03/12 11:23:32;;;;;;;7.22;3.65;;;10.20;99.90;;;;;;5007195;28;20079;-66
2024/03/12 11:25:59;;;;;;;14.00;5.95;;;10.10;99.90;;;;;;5002384;28;20030;-67
2024/03/12 11:28:27;;;;;;;10.98;5.80;;;10.10;99.90;;;;;;4992915;28;20561;-66
2024/03/12 11:31:02;;;;;;;11.82;4.93;;;10.10;99.90;;;;;;5002435;28;20129;-66
2024/03/12 11:33:51;;;;;;;10.52;4.78;;;9.90;99.90;;;;;;4992939;28;20034;-66
2024/03/12 11:36:39;;;;;;;10.52;5.18;;;9.90;99.90;;;;;;5002115;28;20088;-66
2024/03/12 11:39:15;;;;;;;13.68;5.50;;;10.00;99.90;;;;;;4991981;28;20057;-66
2024/03/12 11:42:05;;;;;;;16.55;6.13;;;9.90;99.90;;;;;;4990069;28;20479;-66
2024/03/12 11:44:53;;;;;;;12.83;5.83;;;9.90;99.90;;;;;;4991617;28;20109;-66
2024/03/12 11:47:28;;;;;;;10.77;5.32;;;9.90;99.90;;;;;;4989116;28;20217;-66
2024/03/12 11:49:54;;;;;;;10.23;4.65;;;9.80;99.90;;;;;;4992600;28;20738;-66
2024/03/12 11:52:21;;;;;;;17.08;4.50;;;9.80;99.90;;;;;;5008110;28;20049;-66
2024/03/12 11:54:48;;;;;;;19.58;6.68;;;9.60;99.90;;;;;;4992266;28;20030;-66
2024/03/12 11:57:27;;;;;;;9.55;4.45;;;9.40;99.90;;;;;;4989084;28;20026;-67
2024/03/12 11:59:56;;;;;;;13.10;5.40;;;9.00;99.90;;;;;;4983542;28;20127;-66
2024/03/12 12:02:23;;;;;;;11.50;5.60;;;8.80;99.90;;;;;;4989731;28;20371;-66
2024/03/12 12:04:57;;;;;;;16.73;6.40;;;8.70;99.90;;;;;;4990312;28;20025;-66
2024/03/12 12:07:25;;;;;;;10.95;5.32;;;8.60;99.90;;;;;;4990604;28;20030;-67
2024/03/12 12:09:52;;;;;;;16.73;6.30;;;8.50;99.90;;;;;;4988672;28;20048;-66
2024/03/12 12:12:21;;;;;;;12.57;5.97;;;8.50;99.90;;;;;;5006258;28;20030;-67
2024/03/12 12:14:47;;;;;;;11.75;5.00;;;8.50;99.90;;;;;;4989951;28;20040;-67
2024/03/12 12:17:22;;;;;;;10.93;4.90;;;8.50;99.90;;;;;;4988196;28;20113;-67
2024/03/12 12:20:13;;;;;;;10.93;5.32;;;8.60;99.90;;;;;;4982735;28;20509;-67
2024/03/12 12:22:46;;;;;;;11.57;5.70;;;8.70;99.90;;;;;;4991682;28;20113;-67
2024/03/12 12:25:13;;;;;;;15.02;5.95;;;8.70;99.90;;;;;;4986792;28;20030;-67
2024/03/12 12:27:40;;;;;;;12.82;4.57;;;8.80;99.90;;;;;;4991207;28;20026;-67
2024/03/12 12:30:11;;;;;;;12.70;5.50;;;8.80;99.90;;;;;;4987741;28;20065;-67
2024/03/12 12:32:38;;;;;;;16.33;6.90;;;8.90;99.90;;;;;;4990972;28;20462;-67
2024/03/12 12:35:10;;;;;;;22.33;6.35;;;8.90;99.90;;;;;;4987692;28;20034;-67
2024/03/12 12:37:38;;;;;;;15.70;6.75;;;9.00;99.90;;;;;;4990406;28;20125;-67
2024/03/12 12:40:07;;;;;;;12.63;6.18;;;9.00;99.90;;;;;;4987452;28;20085;-67
2024/03/12 12:42:38;;;;;;;14.90;6.47;;;9.00;99.90;;;;;;4990186;28;20479;-67
2024/03/12 12:45:05;;;;;;;15.25;7.25;;;9.00;99.90;;;;;;4987475;28;20027;-67
2024/03/12 12:47:32;;;;;;;16.00;6.43;;;9.00;99.90;;;;;;4990096;28;20092;-67
2024/03/12 12:50:00;;;;;;;16.27;6.07;;;9.00;99.90;;;;;;4993137;28;20100;-67
2024/03/12 12:52:27;;;;;;;16.13;5.65;;;9.10;99.90;;;;;;4989468;28;20044;-67
2024/03/12 12:54:59;;;;;;;12.68;4.47;;;9.00;99.90;;;;;;4988767;28;20034;-67
2024/03/12 12:57:30;;;;;;;14.45;5.60;;;9.00;99.90;;;;;;4989219;28;20030;-67
2024/03/12 12:59:57;;;;;;;22.25;8.15;;;9.00;99.90;;;;;;4988330;28;20054;-67
2024/03/12 13:02:26;;;;;;;16.58;5.88;;;9.10;99.90;;;;;;4989999;28;20121;-66
2024/03/12 13:04:58;;;;;;;18.75;7.25;;;9.10;99.90;;;;;;4989072;28;20231;-67
2024/03/12 13:07:30;;;;;;;15.20;5.72;;;9.10;99.90;;;;;;4988953;28;20062;-67
2024/03/12 13:09:56;;;;;;;19.38;6.68;;;9.20;99.90;;;;;;4988514;28;20089;-68